sensor_id;sensor_type;location;lat;lon;timestamp;P1;durP1;ratioP1;P2;durP2;ratioP2
25752;SDS011;13600;50.816;4.416;2022-11-23T00:00:11;16.95;;;2.63;;
25752;SDS011;13600;50.816;4.416;2022-11-23T00:02:37;15.13;;;2.85;;
25752;SDS011;13600;50.816;4.416;2022-11-23T00:05:03;13.95;;;2.40;;
25752;SDS011;13600;50.816;4.416;2022-11-23T00:07:29;22.10;;;2.88;;
25752;SDS011;13600;50.816;4.416;2022-11-23T00:09:54;17.45;;;2.95;;
25752;SDS011;13600;50.816;4.416;2022-11-23T00:12:20;16.08;;;2.45;;
25752;SDS011;13600;50.816;4.416;2022-11-23T00:14:47;18.40;;;2.60;;
25752;SDS011;13600;50.816;4.416;2022-11-23T00:17:12;17.20;;;2.50;;
25752;SDS011;13600;50.816;4.416;2022-11-23T00:19:38;21.33;;;2.65;;
25752;SDS011;13600;50.816;4.416;2022-11-23T00:22:05;18.00;;;2.85;;
25752;SDS011;13600;50.816;4.416;2022-11-23T00:24:30;16.80;;;2.97;;
25752;SDS011;13600;50.816;4.416;2022-11-23T00:26:56;9.50;;;2.15;;
25752;SDS011;13600;50.816;4.416;2022-11-23T00:29:22;20.55;;;2.88;;
25752;SDS011;13600;50.816;4.416;2022-11-23T00:31:47;15.63;;;2.83;;
25752;SDS011;13600;50.816;4.416;2022-11-23T00:34:13;18.23;;;2.42;;
25752;SDS011;13600;50.816;4.416;2022-11-23T00:36:40;19.90;;;2.60;;
25752;SDS011;13600;50.816;4.416;2022-11-23T00:39:06;18.40;;;2.60;;
25752;SDS011;13600;50.816;4.416;2022-11-23T00:41:31;16.73;;;2.53;;
25752;SDS011;13600;50.816;4.416;2022-11-23T00:43:57;17.52;;;2.55;;
25752;SDS011;13600;50.816;4.416;2022-11-23T00:46:23;22.85;;;3.00;;
25752;SDS011;13600;50.816;4.416;2022-11-23T00:48:52;14.88;;;2.88;;
25752;SDS011;13600;50.816;4.416;2022-11-23T00:51:20;17.95;;;2.60;;
25752;SDS011;13600;50.816;4.416;2022-11-23T00:53:48;24.35;;;2.78;;
25752;SDS011;13600;50.816;4.416;2022-11-23T00:56:15;16.70;;;2.35;;
25752;SDS011;13600;50.816;4.416;2022-11-23T00:58:45;24.33;;;2.65;;
25752;SDS011;13600;50.816;4.416;2022-11-23T01:01:13;16.63;;;2.30;;
25752;SDS011;13600;50.816;4.416;2022-11-23T01:03:44;16.13;;;2.50;;
25752;SDS011;13600;50.816;4.416;2022-11-23T01:06:21;23.80;;;2.63;;
25752;SDS011;13600;50.816;4.416;2022-11-23T01:08:49;19.02;;;2.90;;
25752;SDS011;13600;50.816;4.416;2022-11-23T01:11:16;20.35;;;2.97;;
25752;SDS011;13600;50.816;4.416;2022-11-23T01:13:43;14.35;;;2.85;;
25752;SDS011;13600;50.816;4.416;2022-11-23T01:16:13;14.73;;;2.78;;
25752;SDS011;13600;50.816;4.416;2022-11-23T01:18:41;20.30;;;3.08;;
25752;SDS011;13600;50.816;4.416;2022-11-23T01:21:06;17.42;;;2.60;;
25752;SDS011;13600;50.816;4.416;2022-11-23T01:23:32;17.50;;;2.58;;
25752;SDS011;13600;50.816;4.416;2022-11-23T01:26:02;21.33;;;3.50;;
25752;SDS011;13600;50.816;4.416;2022-11-23T01:28:35;24.38;;;3.42;;
25752;SDS011;13600;50.816;4.416;2022-11-23T01:31:02;22.17;;;3.50;;
25752;SDS011;13600;50.816;4.416;2022-11-23T01:36:10;20.38;;;3.15;;
25752;SDS011;13600;50.816;4.416;2022-11-23T01:38:37;20.85;;;3.58;;
25752;SDS011;13600;50.816;4.416;2022-11-23T01:41:04;18.15;;;3.17;;
25752;SDS011;13600;50.816;4.416;2022-11-23T01:43:31;27.45;;;3.83;;
25752;SDS011;13600;50.816;4.416;2022-11-23T01:45:57;19.15;;;3.97;;
25752;SDS011;13600;50.816;4.416;2022-11-23T01:51:04;20.15;;;3.35;;
25752;SDS011;13600;50.816;4.416;2022-11-23T01:53:32;24.85;;;3.97;;
25752;SDS011;13600;50.816;4.416;2022-11-23T01:55:59;23.13;;;3.22;;
25752;SDS011;13600;50.816;4.416;2022-11-23T01:58:26;23.83;;;4.05;;
25752;SDS011;13600;50.816;4.416;2022-11-23T02:00:56;18.60;;;2.95;;
25752;SDS011;13600;50.816;4.416;2022-11-23T02:03:22;23.05;;;3.83;;
25752;SDS011;13600;50.816;4.416;2022-11-23T02:05:50;22.70;;;3.30;;
25752;SDS011;13600;50.816;4.416;2022-11-23T02:08:24;23.48;;;3.58;;
25752;SDS011;13600;50.816;4.416;2022-11-23T02:10:50;18.30;;;3.10;;
25752;SDS011;13600;50.816;4.416;2022-11-23T02:13:17;21.35;;;3.53;;
25752;SDS011;13600;50.816;4.416;2022-11-23T02:15:43;23.58;;;3.40;;
25752;SDS011;13600;50.816;4.416;2022-11-23T02:18:12;13.82;;;2.75;;
25752;SDS011;13600;50.816;4.416;2022-11-23T02:20:47;19.10;;;3.65;;
25752;SDS011;13600;50.816;4.416;2022-11-23T02:26:07;18.63;;;3.50;;
25752;SDS011;13600;50.816;4.416;2022-11-23T02:28:38;21.02;;;3.58;;
25752;SDS011;13600;50.816;4.416;2022-11-23T02:31:09;24.83;;;4.88;;
25752;SDS011;13600;50.816;4.416;2022-11-23T02:33:38;26.27;;;3.60;;
25752;SDS011;13600;50.816;4.416;2022-11-23T02:39:07;16.77;;;2.92;;
25752;SDS011;13600;50.816;4.416;2022-11-23T02:41:48;23.70;;;3.35;;
25752;SDS011;13600;50.816;4.416;2022-11-23T02:47:01;17.80;;;2.95;;
25752;SDS011;13600;50.816;4.416;2022-11-23T02:49:28;17.98;;;2.90;;
25752;SDS011;13600;50.816;4.416;2022-11-23T02:51:54;23.83;;;3.13;;
25752;SDS011;13600;50.816;4.416;2022-11-23T02:54:20;20.38;;;2.58;;
25752;SDS011;13600;50.816;4.416;2022-11-23T02:56:46;20.10;;;2.80;;
25752;SDS011;13600;50.816;4.416;2022-11-23T02:59:11;20.45;;;2.90;;
25752;SDS011;13600;50.816;4.416;2022-11-23T03:01:37;23.40;;;2.97;;
25752;SDS011;13600;50.816;4.416;2022-11-23T03:04:06;20.98;;;2.67;;
25752;SDS011;13600;50.816;4.416;2022-11-23T03:06:32;21.48;;;2.47;;
25752;SDS011;13600;50.816;4.416;2022-11-23T03:08:58;20.55;;;2.45;;
25752;SDS011;13600;50.816;4.416;2022-11-23T03:11:25;19.67;;;3.53;;
25752;SDS011;13600;50.816;4.416;2022-11-23T03:13:51;9.68;;;2.22;;
25752;SDS011;13600;50.816;4.416;2022-11-23T03:16:17;23.85;;;2.80;;
25752;SDS011;13600;50.816;4.416;2022-11-23T03:18:42;18.70;;;2.88;;
25752;SDS011;13600;50.816;4.416;2022-11-23T03:21:08;18.17;;;3.00;;
25752;SDS011;13600;50.816;4.416;2022-11-23T03:23:34;20.73;;;3.47;;
25752;SDS011;13600;50.816;4.416;2022-11-23T03:26:00;17.60;;;2.55;;
25752;SDS011;13600;50.816;4.416;2022-11-23T03:28:26;16.85;;;2.38;;
25752;SDS011;13600;50.816;4.416;2022-11-23T03:30:52;23.67;;;3.45;;
25752;SDS011;13600;50.816;4.416;2022-11-23T03:33:18;19.85;;;3.33;;
25752;SDS011;13600;50.816;4.416;2022-11-23T03:35:45;22.08;;;3.20;;
25752;SDS011;13600;50.816;4.416;2022-11-23T03:38:10;17.23;;;2.97;;
25752;SDS011;13600;50.816;4.416;2022-11-23T03:40:36;17.67;;;3.30;;
25752;SDS011;13600;50.816;4.416;2022-11-23T03:43:03;24.58;;;2.75;;
25752;SDS011;13600;50.816;4.416;2022-11-23T03:45:28;19.25;;;2.75;;
25752;SDS011;13600;50.816;4.416;2022-11-23T03:47:54;25.88;;;3.65;;
25752;SDS011;13600;50.816;4.416;2022-11-23T03:50:20;23.02;;;3.40;;
25752;SDS011;13600;50.816;4.416;2022-11-23T03:52:47;23.30;;;3.15;;
25752;SDS011;13600;50.816;4.416;2022-11-23T03:55:13;23.80;;;3.35;;
25752;SDS011;13600;50.816;4.416;2022-11-23T03:57:39;23.42;;;2.58;;
25752;SDS011;13600;50.816;4.416;2022-11-23T04:00:05;26.17;;;2.67;;
25752;SDS011;13600;50.816;4.416;2022-11-23T04:02:32;17.50;;;3.13;;
25752;SDS011;13600;50.816;4.416;2022-11-23T04:04:58;23.13;;;2.80;;
25752;SDS011;13600;50.816;4.416;2022-11-23T04:07:23;26.20;;;3.05;;
25752;SDS011;13600;50.816;4.416;2022-11-23T04:09:49;20.52;;;2.83;;
25752;SDS011;13600;50.816;4.416;2022-11-23T04:12:15;17.85;;;2.58;;
25752;SDS011;13600;50.816;4.416;2022-11-23T04:14:40;23.10;;;3.15;;
25752;SDS011;13600;50.816;4.416;2022-11-23T04:17:06;24.90;;;3.67;;
25752;SDS011;13600;50.816;4.416;2022-11-23T04:19:32;20.77;;;3.13;;
25752;SDS011;13600;50.816;4.416;2022-11-23T04:21:58;21.73;;;3.13;;
25752;SDS011;13600;50.816;4.416;2022-11-23T04:24:23;27.42;;;3.15;;
25752;SDS011;13600;50.816;4.416;2022-11-23T04:26:49;19.65;;;3.00;;
25752;SDS011;13600;50.816;4.416;2022-11-23T04:29:14;23.13;;;3.17;;
25752;SDS011;13600;50.816;4.416;2022-11-23T04:31:40;23.73;;;3.30;;
25752;SDS011;13600;50.816;4.416;2022-11-23T04:34:06;20.38;;;3.38;;
25752;SDS011;13600;50.816;4.416;2022-11-23T04:36:31;28.23;;;3.53;;
25752;SDS011;13600;50.816;4.416;2022-11-23T04:38:57;22.35;;;2.55;;
25752;SDS011;13600;50.816;4.416;2022-11-23T04:41:23;17.08;;;3.20;;
25752;SDS011;13600;50.816;4.416;2022-11-23T04:43:49;23.25;;;4.15;;
25752;SDS011;13600;50.816;4.416;2022-11-23T04:46:16;22.23;;;3.80;;
25752;SDS011;13600;50.816;4.416;2022-11-23T04:48:42;19.50;;;2.60;;
25752;SDS011;13600;50.816;4.416;2022-11-23T04:51:08;22.33;;;3.10;;
25752;SDS011;13600;50.816;4.416;2022-11-23T04:53:34;19.88;;;2.90;;
25752;SDS011;13600;50.816;4.416;2022-11-23T04:56:00;23.80;;;3.95;;
25752;SDS011;13600;50.816;4.416;2022-11-23T04:58:26;21.48;;;2.63;;
25752;SDS011;13600;50.816;4.416;2022-11-23T05:00:52;17.98;;;2.75;;
25752;SDS011;13600;50.816;4.416;2022-11-23T05:03:17;20.83;;;2.92;;
25752;SDS011;13600;50.816;4.416;2022-11-23T05:05:43;20.95;;;3.40;;
25752;SDS011;13600;50.816;4.416;2022-11-23T05:08:09;22.58;;;3.45;;
25752;SDS011;13600;50.816;4.416;2022-11-23T05:10:35;23.70;;;3.50;;
25752;SDS011;13600;50.816;4.416;2022-11-23T05:13:02;20.23;;;3.20;;
25752;SDS011;13600;50.816;4.416;2022-11-23T05:15:28;22.45;;;2.80;;
25752;SDS011;13600;50.816;4.416;2022-11-23T05:17:59;21.02;;;3.05;;
25752;SDS011;13600;50.816;4.416;2022-11-23T05:20:28;22.90;;;2.83;;
25752;SDS011;13600;50.816;4.416;2022-11-23T05:22:54;20.15;;;2.95;;
25752;SDS011;13600;50.816;4.416;2022-11-23T05:25:20;20.33;;;3.50;;
25752;SDS011;13600;50.816;4.416;2022-11-23T05:27:47;26.67;;;2.60;;
25752;SDS011;13600;50.816;4.416;2022-11-23T05:30:12;27.02;;;3.45;;
25752;SDS011;13600;50.816;4.416;2022-11-23T05:32:38;21.27;;;2.90;;
25752;SDS011;13600;50.816;4.416;2022-11-23T05:35:04;16.15;;;2.55;;
25752;SDS011;13600;50.816;4.416;2022-11-23T05:37:30;24.30;;;2.85;;
25752;SDS011;13600;50.816;4.416;2022-11-23T05:39:56;20.98;;;2.60;;
25752;SDS011;13600;50.816;4.416;2022-11-23T05:42:21;22.77;;;3.40;;
25752;SDS011;13600;50.816;4.416;2022-11-23T05:44:48;24.25;;;3.00;;
25752;SDS011;13600;50.816;4.416;2022-11-23T05:47:15;27.20;;;2.80;;
25752;SDS011;13600;50.816;4.416;2022-11-23T05:49:41;23.98;;;3.45;;
25752;SDS011;13600;50.816;4.416;2022-11-23T05:52:06;21.85;;;3.33;;
25752;SDS011;13600;50.816;4.416;2022-11-23T05:54:32;16.75;;;2.60;;
25752;SDS011;13600;50.816;4.416;2022-11-23T05:56:57;26.42;;;2.80;;
25752;SDS011;13600;50.816;4.416;2022-11-23T05:59:23;19.42;;;3.00;;
25752;SDS011;13600;50.816;4.416;2022-11-23T06:01:49;19.02;;;2.80;;
25752;SDS011;13600;50.816;4.416;2022-11-23T06:04:14;20.42;;;3.13;;
25752;SDS011;13600;50.816;4.416;2022-11-23T06:06:40;24.23;;;3.35;;
25752;SDS011;13600;50.816;4.416;2022-11-23T06:09:06;18.80;;;2.75;;
25752;SDS011;13600;50.816;4.416;2022-11-23T06:11:31;23.33;;;3.00;;
25752;SDS011;13600;50.816;4.416;2022-11-23T06:13:57;19.70;;;2.95;;
25752;SDS011;13600;50.816;4.416;2022-11-23T06:16:23;16.77;;;2.80;;
25752;SDS011;13600;50.816;4.416;2022-11-23T06:18:48;21.88;;;3.30;;
25752;SDS011;13600;50.816;4.416;2022-11-23T06:21:14;27.63;;;3.33;;
25752;SDS011;13600;50.816;4.416;2022-11-23T06:23:40;30.10;;;3.45;;
25752;SDS011;13600;50.816;4.416;2022-11-23T06:26:05;28.45;;;3.65;;
25752;SDS011;13600;50.816;4.416;2022-11-23T06:28:31;23.85;;;3.10;;
25752;SDS011;13600;50.816;4.416;2022-11-23T06:31:03;22.75;;;2.95;;
25752;SDS011;13600;50.816;4.416;2022-11-23T06:33:30;28.17;;;3.03;;
25752;SDS011;13600;50.816;4.416;2022-11-23T06:35:58;17.52;;;2.80;;
25752;SDS011;13600;50.816;4.416;2022-11-23T06:38:25;25.38;;;3.05;;
25752;SDS011;13600;50.816;4.416;2022-11-23T06:40:51;31.00;;;3.70;;
25752;SDS011;13600;50.816;4.416;2022-11-23T06:43:16;23.60;;;3.28;;
25752;SDS011;13600;50.816;4.416;2022-11-23T06:45:43;20.95;;;3.30;;
25752;SDS011;13600;50.816;4.416;2022-11-23T06:48:09;25.33;;;3.35;;
25752;SDS011;13600;50.816;4.416;2022-11-23T06:50:34;24.52;;;3.90;;
25752;SDS011;13600;50.816;4.416;2022-11-23T06:53:00;26.52;;;2.90;;
25752;SDS011;13600;50.816;4.416;2022-11-23T06:55:26;24.60;;;3.75;;
25752;SDS011;13600;50.816;4.416;2022-11-23T06:57:52;26.98;;;3.80;;
25752;SDS011;13600;50.816;4.416;2022-11-23T07:00:18;27.33;;;3.80;;
25752;SDS011;13600;50.816;4.416;2022-11-23T07:02:49;15.50;;;3.33;;
25752;SDS011;13600;50.816;4.416;2022-11-23T07:05:17;28.57;;;3.83;;
25752;SDS011;13600;50.816;4.416;2022-11-23T07:07:43;22.95;;;3.45;;
25752;SDS011;13600;50.816;4.416;2022-11-23T07:10:08;18.45;;;3.50;;
25752;SDS011;13600;50.816;4.416;2022-11-23T07:12:34;22.42;;;3.28;;
25752;SDS011;13600;50.816;4.416;2022-11-23T07:15:00;28.05;;;4.50;;
25752;SDS011;13600;50.816;4.416;2022-11-23T07:17:26;20.92;;;3.65;;
25752;SDS011;13600;50.816;4.416;2022-11-23T07:19:51;25.48;;;3.38;;
25752;SDS011;13600;50.816;4.416;2022-11-23T07:22:18;27.33;;;3.78;;
25752;SDS011;13600;50.816;4.416;2022-11-23T07:24:43;21.83;;;4.07;;
25752;SDS011;13600;50.816;4.416;2022-11-23T07:27:09;18.23;;;3.30;;
25752;SDS011;13600;50.816;4.416;2022-11-23T07:29:35;20.80;;;3.40;;
25752;SDS011;13600;50.816;4.416;2022-11-23T07:32:00;22.40;;;3.20;;
25752;SDS011;13600;50.816;4.416;2022-11-23T07:34:26;31.83;;;3.20;;
25752;SDS011;13600;50.816;4.416;2022-11-23T07:36:52;25.73;;;3.65;;
25752;SDS011;13600;50.816;4.416;2022-11-23T07:39:18;21.55;;;3.45;;
25752;SDS011;13600;50.816;4.416;2022-11-23T07:41:44;35.72;;;4.25;;
25752;SDS011;13600;50.816;4.416;2022-11-23T07:44:12;26.02;;;4.15;;
25752;SDS011;13600;50.816;4.416;2022-11-23T07:46:38;27.58;;;3.97;;
25752;SDS011;13600;50.816;4.416;2022-11-23T07:49:03;23.92;;;4.35;;
25752;SDS011;13600;50.816;4.416;2022-11-23T07:51:29;23.10;;;4.13;;
25752;SDS011;13600;50.816;4.416;2022-11-23T07:53:55;21.85;;;4.35;;
25752;SDS011;13600;50.816;4.416;2022-11-23T07:56:21;15.73;;;3.83;;
25752;SDS011;13600;50.816;4.416;2022-11-23T07:58:47;17.17;;;3.50;;
25752;SDS011;13600;50.816;4.416;2022-11-23T08:01:16;24.67;;;4.20;;
25752;SDS011;13600;50.816;4.416;2022-11-23T08:03:43;22.30;;;3.88;;
25752;SDS011;13600;50.816;4.416;2022-11-23T08:06:11;26.42;;;4.82;;
25752;SDS011;13600;50.816;4.416;2022-11-23T08:08:37;19.75;;;4.07;;
25752;SDS011;13600;50.816;4.416;2022-11-23T08:11:04;31.55;;;4.47;;
25752;SDS011;13600;50.816;4.416;2022-11-23T08:13:31;33.38;;;4.72;;
25752;SDS011;13600;50.816;4.416;2022-11-23T08:15:58;19.75;;;4.30;;
25752;SDS011;13600;50.816;4.416;2022-11-23T08:18:25;22.90;;;3.70;;
25752;SDS011;13600;50.816;4.416;2022-11-23T08:20:51;18.10;;;3.92;;
25752;SDS011;13600;50.816;4.416;2022-11-23T08:23:17;25.50;;;4.00;;
25752;SDS011;13600;50.816;4.416;2022-11-23T08:25:43;25.65;;;3.67;;
25752;SDS011;13600;50.816;4.416;2022-11-23T08:28:12;20.60;;;4.00;;
25752;SDS011;13600;50.816;4.416;2022-11-23T08:30:38;14.90;;;3.63;;
25752;SDS011;13600;50.816;4.416;2022-11-23T08:33:07;15.43;;;3.72;;
25752;SDS011;13600;50.816;4.416;2022-11-23T08:35:34;15.75;;;3.20;;
25752;SDS011;13600;50.816;4.416;2022-11-23T08:38:01;18.35;;;3.53;;
25752;SDS011;13600;50.816;4.416;2022-11-23T08:40:27;18.63;;;3.60;;
25752;SDS011;13600;50.816;4.416;2022-11-23T08:42:53;17.05;;;3.40;;
25752;SDS011;13600;50.816;4.416;2022-11-23T08:45:20;18.02;;;3.28;;
25752;SDS011;13600;50.816;4.416;2022-11-23T08:47:46;16.70;;;3.70;;
25752;SDS011;13600;50.816;4.416;2022-11-23T08:50:12;18.92;;;4.03;;
25752;SDS011;13600;50.816;4.416;2022-11-23T08:52:39;19.00;;;3.78;;
25752;SDS011;13600;50.816;4.416;2022-11-23T08:55:05;15.63;;;4.45;;
25752;SDS011;13600;50.816;4.416;2022-11-23T08:57:31;15.75;;;3.40;;
25752;SDS011;13600;50.816;4.416;2022-11-23T08:59:56;19.90;;;4.18;;
25752;SDS011;13600;50.816;4.416;2022-11-23T09:02:22;17.92;;;4.28;;
25752;SDS011;13600;50.816;4.416;2022-11-23T09:04:48;15.60;;;3.33;;
25752;SDS011;13600;50.816;4.416;2022-11-23T09:07:13;12.95;;;3.15;;
25752;SDS011;13600;50.816;4.416;2022-11-23T09:09:39;13.57;;;4.05;;
25752;SDS011;13600;50.816;4.416;2022-11-23T09:12:05;19.13;;;4.15;;
25752;SDS011;13600;50.816;4.416;2022-11-23T09:14:31;11.93;;;3.85;;
25752;SDS011;13600;50.816;4.416;2022-11-23T09:16:58;12.68;;;3.70;;
25752;SDS011;13600;50.816;4.416;2022-11-23T09:19:24;18.08;;;4.03;;
25752;SDS011;13600;50.816;4.416;2022-11-23T09:21:50;10.63;;;3.55;;
25752;SDS011;13600;50.816;4.416;2022-11-23T09:24:17;17.83;;;3.53;;
25752;SDS011;13600;50.816;4.416;2022-11-23T09:26:42;15.60;;;4.30;;
25752;SDS011;13600;50.816;4.416;2022-11-23T09:29:08;17.05;;;3.67;;
25752;SDS011;13600;50.816;4.416;2022-11-23T09:31:37;14.75;;;3.30;;
25752;SDS011;13600;50.816;4.416;2022-11-23T09:34:03;14.88;;;3.50;;
25752;SDS011;13600;50.816;4.416;2022-11-23T09:36:29;14.80;;;3.20;;
25752;SDS011;13600;50.816;4.416;2022-11-23T09:38:54;17.30;;;4.30;;
25752;SDS011;13600;50.816;4.416;2022-11-23T09:44:17;15.02;;;2.88;;
25752;SDS011;13600;50.816;4.416;2022-11-23T09:49:22;10.68;;;2.65;;
25752;SDS011;13600;50.816;4.416;2022-11-23T09:52:16;17.92;;;4.63;;
25752;SDS011;13600;50.816;4.416;2022-11-23T09:54:44;11.30;;;2.95;;
25752;SDS011;13600;50.816;4.416;2022-11-23T09:57:13;15.35;;;3.97;;
25752;SDS011;13600;50.816;4.416;2022-11-23T09:59:49;15.00;;;3.13;;
25752;SDS011;13600;50.816;4.416;2022-11-23T10:02:39;12.65;;;2.67;;
25752;SDS011;13600;50.816;4.416;2022-11-23T10:05:05;9.60;;;2.38;;
25752;SDS011;13600;50.816;4.416;2022-11-23T10:16:43;9.20;;;2.13;;
25752;SDS011;13600;50.816;4.416;2022-11-23T10:24:19;8.88;;;2.17;;
25752;SDS011;13600;50.816;4.416;2022-11-23T10:26:52;6.78;;;2.20;;
25752;SDS011;13600;50.816;4.416;2022-11-23T10:31:51;12.77;;;2.00;;
25752;SDS011;13600;50.816;4.416;2022-11-23T10:36:49;10.93;;;2.70;;
25752;SDS011;13600;50.816;4.416;2022-11-23T10:39:22;12.25;;;2.45;;
25752;SDS011;13600;50.816;4.416;2022-11-23T10:41:56;9.25;;;2.15;;
25752;SDS011;13600;50.816;4.416;2022-11-23T10:44:28;8.90;;;2.20;;
25752;SDS011;13600;50.816;4.416;2022-11-23T10:46:54;11.43;;;1.90;;
25752;SDS011;13600;50.816;4.416;2022-11-23T10:49:30;12.50;;;2.00;;
25752;SDS011;13600;50.816;4.416;2022-11-23T10:51:58;9.23;;;2.20;;
25752;SDS011;13600;50.816;4.416;2022-11-23T10:54:27;12.18;;;2.00;;
25752;SDS011;13600;50.816;4.416;2022-11-23T10:56:57;8.88;;;1.88;;
25752;SDS011;13600;50.816;4.416;2022-11-23T11:04:46;9.40;;;1.80;;
25752;SDS011;13600;50.816;4.416;2022-11-23T11:07:23;11.82;;;2.30;;
25752;SDS011;13600;50.816;4.416;2022-11-23T11:09:55;7.47;;;2.22;;
25752;SDS011;13600;50.816;4.416;2022-11-23T11:12:22;8.98;;;1.90;;
25752;SDS011;13600;50.816;4.416;2022-11-23T11:14:56;8.75;;;2.08;;
25752;SDS011;13600;50.816;4.416;2022-11-23T11:17:26;10.60;;;1.98;;
25752;SDS011;13600;50.816;4.416;2022-11-23T11:19:54;11.15;;;2.00;;
25752;SDS011;13600;50.816;4.416;2022-11-23T11:22:24;7.90;;;2.00;;
25752;SDS011;13600;50.816;4.416;2022-11-23T11:24:53;11.27;;;2.00;;
25752;SDS011;13600;50.816;4.416;2022-11-23T11:27:19;7.85;;;2.30;;
25752;SDS011;13600;50.816;4.416;2022-11-23T11:29:51;10.18;;;2.00;;
25752;SDS011;13600;50.816;4.416;2022-11-23T11:37:50;6.55;;;1.45;;
25752;SDS011;13600;50.816;4.416;2022-11-23T11:40:20;12.55;;;1.60;;
25752;SDS011;13600;50.816;4.416;2022-11-23T11:45:26;6.47;;;1.30;;
25752;SDS011;13600;50.816;4.416;2022-11-23T11:48:01;7.97;;;1.67;;
25752;SDS011;13600;50.816;4.416;2022-11-23T11:50:38;7.70;;;1.50;;
25752;SDS011;13600;50.816;4.416;2022-11-23T11:53:12;8.80;;;1.20;;
25752;SDS011;13600;50.816;4.416;2022-11-23T11:58:15;5.20;;;1.33;;
25752;SDS011;13600;50.816;4.416;2022-11-23T12:00:41;11.07;;;1.67;;
25752;SDS011;13600;50.816;4.416;2022-11-23T12:06:03;8.82;;;2.30;;
25752;SDS011;13600;50.816;4.416;2022-11-23T12:08:44;8.15;;;1.95;;
25752;SDS011;13600;50.816;4.416;2022-11-23T12:11:15;7.82;;;1.67;;
25752;SDS011;13600;50.816;4.416;2022-11-23T12:13:41;9.52;;;1.27;;
25752;SDS011;13600;50.816;4.416;2022-11-23T12:32:47;6.47;;;1.38;;
25752;SDS011;13600;50.816;4.416;2022-11-23T12:35:58;7.13;;;1.30;;
25752;SDS011;13600;50.816;4.416;2022-11-23T12:38:40;6.32;;;1.30;;
25752;SDS011;13600;50.816;4.416;2022-11-23T12:46:45;4.13;;;1.30;;
25752;SDS011;13600;50.816;4.416;2022-11-23T12:49:32;5.00;;;1.30;;
25752;SDS011;13600;50.816;4.416;2022-11-23T12:55:38;5.55;;;1.13;;
25752;SDS011;13600;50.816;4.416;2022-11-23T13:00:52;9.27;;;1.80;;
25752;SDS011;13600;50.816;4.416;2022-11-23T13:12:12;12.98;;;1.90;;
25752;SDS011;13600;50.816;4.416;2022-11-23T13:23:45;8.38;;;1.60;;
25752;SDS011;13600;50.816;4.416;2022-11-23T13:26:14;6.18;;;1.60;;
25752;SDS011;13600;50.816;4.416;2022-11-23T13:28:43;7.13;;;1.63;;
25752;SDS011;13600;50.816;4.416;2022-11-23T13:33:39;5.18;;;1.23;;
25752;SDS011;13600;50.816;4.416;2022-11-23T13:42:24;4.45;;;1.45;;
25752;SDS011;13600;50.816;4.416;2022-11-23T13:50:29;5.07;;;1.40;;
25752;SDS011;13600;50.816;4.416;2022-11-23T13:52:55;6.15;;;1.58;;
25752;SDS011;13600;50.816;4.416;2022-11-23T13:55:25;4.45;;;1.35;;
25752;SDS011;13600;50.816;4.416;2022-11-23T14:09:13;5.07;;;1.70;;
25752;SDS011;13600;50.816;4.416;2022-11-23T14:14:23;4.88;;;1.60;;
25752;SDS011;13600;50.816;4.416;2022-11-23T14:17:19;3.97;;;1.85;;
25752;SDS011;13600;50.816;4.416;2022-11-23T14:33:50;3.60;;;1.60;;
25752;SDS011;13600;50.816;4.416;2022-11-23T14:41:40;4.45;;;1.92;;
25752;SDS011;13600;50.816;4.416;2022-11-23T14:44:11;6.75;;;1.55;;
25752;SDS011;13600;50.816;4.416;2022-11-23T14:46:57;9.43;;;4.53;;
25752;SDS011;13600;50.816;4.416;2022-11-23T14:49:30;3.45;;;1.63;;
25752;SDS011;13600;50.816;4.416;2022-11-23T14:51:56;4.60;;;1.63;;
25752;SDS011;13600;50.816;4.416;2022-11-23T14:54:22;7.50;;;3.65;;
25752;SDS011;13600;50.816;4.416;2022-11-23T14:56:50;5.63;;;2.10;;
25752;SDS011;13600;50.816;4.416;2022-11-23T15:01:59;4.35;;;1.70;;
25752;SDS011;13600;50.816;4.416;2022-11-23T15:04:31;5.15;;;1.60;;
25752;SDS011;13600;50.816;4.416;2022-11-23T15:07:19;4.80;;;2.08;;
25752;SDS011;13600;50.816;4.416;2022-11-23T15:13:16;5.13;;;1.63;;
25752;SDS011;13600;50.816;4.416;2022-11-23T15:18:24;4.03;;;1.48;;
25752;SDS011;13600;50.816;4.416;2022-11-23T15:20:56;8.70;;;1.83;;
25752;SDS011;13600;50.816;4.416;2022-11-23T15:23:32;4.55;;;1.67;;
25752;SDS011;13600;50.816;4.416;2022-11-23T15:26:02;6.38;;;1.88;;
25752;SDS011;13600;50.816;4.416;2022-11-23T15:28:30;5.30;;;2.10;;
25752;SDS011;13600;50.816;4.416;2022-11-23T15:30:59;5.30;;;1.75;;
25752;SDS011;13600;50.816;4.416;2022-11-23T15:33:25;10.13;;;2.88;;
25752;SDS011;13600;50.816;4.416;2022-11-23T15:35:51;6.22;;;2.75;;
25752;SDS011;13600;50.816;4.416;2022-11-23T15:38:17;7.03;;;2.42;;
25752;SDS011;13600;50.816;4.416;2022-11-23T15:40:44;6.40;;;2.22;;
25752;SDS011;13600;50.816;4.416;2022-11-23T15:43:16;13.98;;;3.33;;
25752;SDS011;13600;50.816;4.416;2022-11-23T15:48:12;13.13;;;2.63;;
25752;SDS011;13600;50.816;4.416;2022-11-23T15:50:51;8.35;;;2.78;;
25752;SDS011;13600;50.816;4.416;2022-11-23T15:53:19;5.85;;;2.50;;
25752;SDS011;13600;50.816;4.416;2022-11-23T15:55:49;4.82;;;2.78;;
25752;SDS011;13600;50.816;4.416;2022-11-23T15:58:18;10.60;;;3.38;;
25752;SDS011;13600;50.816;4.416;2022-11-23T16:00:53;9.20;;;2.70;;
25752;SDS011;13600;50.816;4.416;2022-11-23T16:03:30;7.32;;;2.60;;
25752;SDS011;13600;50.816;4.416;2022-11-23T16:06:08;5.43;;;3.55;;
25752;SDS011;13600;50.816;4.416;2022-11-23T16:08:36;11.30;;;3.20;;
25752;SDS011;13600;50.816;4.416;2022-11-23T16:11:05;10.68;;;3.10;;
25752;SDS011;13600;50.816;4.416;2022-11-23T16:13:49;6.13;;;3.15;;
25752;SDS011;13600;50.816;4.416;2022-11-23T16:16:16;12.02;;;3.53;;
25752;SDS011;13600;50.816;4.416;2022-11-23T16:18:45;10.38;;;3.40;;
25752;SDS011;13600;50.816;4.416;2022-11-23T16:21:13;11.15;;;3.28;;
25752;SDS011;13600;50.816;4.416;2022-11-23T16:26:19;19.88;;;5.68;;
25752;SDS011;13600;50.816;4.416;2022-11-23T16:28:54;13.25;;;4.47;;
25752;SDS011;13600;50.816;4.416;2022-11-23T16:31:25;11.02;;;4.22;;
25752;SDS011;13600;50.816;4.416;2022-11-23T16:33:54;17.45;;;6.57;;
25752;SDS011;13600;50.816;4.416;2022-11-23T16:36:21;18.45;;;7.95;;
25752;SDS011;13600;50.816;4.416;2022-11-23T16:38:47;14.50;;;6.03;;
25752;SDS011;13600;50.816;4.416;2022-11-23T16:41:12;17.90;;;8.13;;
25752;SDS011;13600;50.816;4.416;2022-11-23T16:43:38;16.58;;;5.47;;
25752;SDS011;13600;50.816;4.416;2022-11-23T16:46:03;15.25;;;5.20;;
25752;SDS011;13600;50.816;4.416;2022-11-23T16:48:37;16.80;;;5.53;;
25752;SDS011;13600;50.816;4.416;2022-11-23T16:51:12;12.80;;;5.05;;
25752;SDS011;13600;50.816;4.416;2022-11-23T16:53:43;11.50;;;4.55;;
25752;SDS011;13600;50.816;4.416;2022-11-23T16:56:16;21.02;;;5.30;;
25752;SDS011;13600;50.816;4.416;2022-11-23T16:58:56;21.27;;;5.22;;
25752;SDS011;13600;50.816;4.416;2022-11-23T17:01:24;16.55;;;5.82;;
25752;SDS011;13600;50.816;4.416;2022-11-23T17:03:51;21.98;;;6.57;;
25752;SDS011;13600;50.816;4.416;2022-11-23T17:06:18;16.48;;;6.22;;
25752;SDS011;13600;50.816;4.416;2022-11-23T17:08:47;20.95;;;5.32;;
25752;SDS011;13600;50.816;4.416;2022-11-23T17:11:21;16.63;;;5.68;;
25752;SDS011;13600;50.816;4.416;2022-11-23T17:13:48;20.55;;;5.78;;
25752;SDS011;13600;50.816;4.416;2022-11-23T17:16:18;25.83;;;6.25;;
25752;SDS011;13600;50.816;4.416;2022-11-23T17:18:45;29.15;;;7.55;;
25752;SDS011;13600;50.816;4.416;2022-11-23T17:21:11;23.55;;;6.80;;
25752;SDS011;13600;50.816;4.416;2022-11-23T17:23:37;27.25;;;7.28;;
25752;SDS011;13600;50.816;4.416;2022-11-23T17:26:05;18.25;;;6.53;;
25752;SDS011;13600;50.816;4.416;2022-11-23T17:28:32;28.33;;;7.15;;